sensor_id;sensor_type;location;lat;lon;timestamp;temperature;humidity
41756;DHT22;27435;48.480;9.258;2023-04-25T00:01:13;7.80;97.60
41756;DHT22;27435;48.480;9.258;2023-04-25T00:03:39;7.80;97.30
41756;DHT22;27435;48.480;9.258;2023-04-25T00:06:05;7.90;96.90
41756;DHT22;27435;48.480;9.258;2023-04-25T00:08:32;8.10;96.10
41756;DHT22;27435;48.480;9.258;2023-04-25T00:10:58;8.10;96.10
41756;DHT22;27435;48.480;9.258;2023-04-25T00:13:25;7.80;96.90
41756;DHT22;27435;48.480;9.258;2023-04-25T00:15:51;7.80;97.50
41756;DHT22;27435;48.480;9.258;2023-04-25T00:18:18;7.80;97.30
41756;DHT22;27435;48.480;9.258;2023-04-25T00:20:44;7.90;97.70
41756;DHT22;27435;48.480;9.258;2023-04-25T00:23:13;8.00;96.80
41756;DHT22;27435;48.480;9.258;2023-04-25T00:25:44;8.00;96.10
41756;DHT22;27435;48.480;9.258;2023-04-25T00:28:10;8.10;95.70
41756;DHT22;27435;48.480;9.258;2023-04-25T00:30:36;8.00;95.90
41756;DHT22;27435;48.480;9.258;2023-04-25T00:33:01;8.10;95.40
41756;DHT22;27435;48.480;9.258;2023-04-25T00:35:27;8.10;95.50
41756;DHT22;27435;48.480;9.258;2023-04-25T00:37:54;8.10;95.80
41756;DHT22;27435;48.480;9.258;2023-04-25T00:40:20;8.20;95.30
41756;DHT22;27435;48.480;9.258;2023-04-25T00:42:46;8.20;95.30
41756;DHT22;27435;48.480;9.258;2023-04-25T00:45:14;8.10;95.50
41756;DHT22;27435;48.480;9.258;2023-04-25T00:47:40;8.10;96.20
41756;DHT22;27435;48.480;9.258;2023-04-25T00:50:07;8.20;96.10
41756;DHT22;27435;48.480;9.258;2023-04-25T00:52:33;8.20;96.30
41756;DHT22;27435;48.480;9.258;2023-04-25T00:54:59;8.20;96.60
41756;DHT22;27435;48.480;9.258;2023-04-25T00:57:25;8.00;96.20
41756;DHT22;27435;48.480;9.258;2023-04-25T00:59:51;7.90;97.10
41756;DHT22;27435;48.480;9.258;2023-04-25T01:02:18;7.90;98.00
41756;DHT22;27435;48.480;9.258;2023-04-25T01:04:44;8.00;98.10
41756;DHT22;27435;48.480;9.258;2023-04-25T01:07:10;7.90;98.00
41756;DHT22;27435;48.480;9.258;2023-04-25T01:09:36;7.80;98.70
41756;DHT22;27435;48.480;9.258;2023-04-25T01:12:02;7.70;99.00
41756;DHT22;27435;48.480;9.258;2023-04-25T01:14:28;7.70;99.00
41756;DHT22;27435;48.480;9.258;2023-04-25T01:16:55;7.60;99.00
41756;DHT22;27435;48.480;9.258;2023-04-25T01:19:21;7.60;99.00
41756;DHT22;27435;48.480;9.258;2023-04-25T01:21:46;7.60;99.00
41756;DHT22;27435;48.480;9.258;2023-04-25T01:24:12;7.60;99.00
41756;DHT22;27435;48.480;9.258;2023-04-25T01:26:40;7.70;99.00
41756;DHT22;27435;48.480;9.258;2023-04-25T01:29:09;7.80;99.00
41756;DHT22;27435;48.480;9.258;2023-04-25T01:31:36;7.70;99.00
41756;DHT22;27435;48.480;9.258;2023-04-25T01:34:02;7.60;99.00
41756;DHT22;27435;48.480;9.258;2023-04-25T01:36:28;7.60;99.00
41756;DHT22;27435;48.480;9.258;2023-04-25T01:38:53;7.80;99.00
41756;DHT22;27435;48.480;9.258;2023-04-25T01:41:20;7.80;99.00
41756;DHT22;27435;48.480;9.258;2023-04-25T01:43:48;7.80;99.00
41756;DHT22;27435;48.480;9.258;2023-04-25T01:46:14;7.90;99.00
41756;DHT22;27435;48.480;9.258;2023-04-25T01:48:40;7.70;99.00
41756;DHT22;27435;48.480;9.258;2023-04-25T01:51:06;7.70;99.00
41756;DHT22;27435;48.480;9.258;2023-04-25T01:53:31;7.60;99.00
41756;DHT22;27435;48.480;9.258;2023-04-25T01:55:57;7.60;99.00
41756;DHT22;27435;48.480;9.258;2023-04-25T01:58:23;7.50;99.00
41756;DHT22;27435;48.480;9.258;2023-04-25T02:00:48;7.40;99.00
41756;DHT22;27435;48.480;9.258;2023-04-25T02:03:14;7.40;99.00
41756;DHT22;27435;48.480;9.258;2023-04-25T02:05:40;7.40;99.00
41756;DHT22;27435;48.480;9.258;2023-04-25T02:08:07;7.40;99.00
41756;DHT22;27435;48.480;9.258;2023-04-25T02:10:34;7.50;99.00
41756;DHT22;27435;48.480;9.258;2023-04-25T02:13:00;7.50;99.00
41756;DHT22;27435;48.480;9.258;2023-04-25T02:15:25;7.50;99.00
41756;DHT22;27435;48.480;9.258;2023-04-25T02:17:51;7.40;99.00
41756;DHT22;27435;48.480;9.258;2023-04-25T02:20:23;7.40;99.00
41756;DHT22;27435;48.480;9.258;2023-04-25T02:22:50;7.30;99.00
41756;DHT22;27435;48.480;9.258;2023-04-25T02:25:17;7.30;99.00
41756;DHT22;27435;48.480;9.258;2023-04-25T02:27:42;7.30;99.00
41756;DHT22;27435;48.480;9.258;2023-04-25T02:30:08;7.30;99.00
41756;DHT22;27435;48.480;9.258;2023-04-25T02:32:34;7.40;99.00
41756;DHT22;27435;48.480;9.258;2023-04-25T02:35:01;7.50;99.00
41756;DHT22;27435;48.480;9.258;2023-04-25T02:37:30;7.50;99.00
41756;DHT22;27435;48.480;9.258;2023-04-25T02:39:55;7.30;99.00
41756;DHT22;27435;48.480;9.258;2023-04-25T02:42:21;7.30;99.00
41756;DHT22;27435;48.480;9.258;2023-04-25T02:44:47;7.40;99.00
41756;DHT22;27435;48.480;9.258;2023-04-25T02:47:12;7.40;99.00
41756;DHT22;27435;48.480;9.258;2023-04-25T02:49:38;7.30;99.00
41756;DHT22;27435;48.480;9.258;2023-04-25T02:52:03;7.30;99.00
41756;DHT22;27435;48.480;9.258;2023-04-25T02:54:30;7.30;99.00
41756;DHT22;27435;48.480;9.258;2023-04-25T02:56:56;7.20;99.00
41756;DHT22;27435;48.480;9.258;2023-04-25T02:59:21;7.10;99.00
41756;DHT22;27435;48.480;9.258;2023-04-25T03:01:47;7.20;99.00
41756;DHT22;27435;48.480;9.258;2023-04-25T03:04:13;7.10;99.00
41756;DHT22;27435;48.480;9.258;2023-04-25T03:06:38;7.00;99.00
41756;DHT22;27435;48.480;9.258;2023-04-25T03:09:04;7.10;99.00
41756;DHT22;27435;48.480;9.258;2023-04-25T03:11:29;7.00;99.00
41756;DHT22;27435;48.480;9.258;2023-04-25T03:13:55;6.90;99.00
41756;DHT22;27435;48.480;9.258;2023-04-25T03:16:21;6.80;99.00
41756;DHT22;27435;48.480;9.258;2023-04-25T03:18:47;6.80;99.00
41756;DHT22;27435;48.480;9.258;2023-04-25T03:21:13;6.80;99.00
41756;DHT22;27435;48.480;9.258;2023-04-25T03:23:38;6.60;99.00
41756;DHT22;27435;48.480;9.258;2023-04-25T03:26:04;6.50;99.00
41756;DHT22;27435;48.480;9.258;2023-04-25T03:28:29;6.40;99.00
41756;DHT22;27435;48.480;9.258;2023-04-25T03:30:55;6.50;99.00
41756;DHT22;27435;48.480;9.258;2023-04-25T03:33:21;6.50;99.00
41756;DHT22;27435;48.480;9.258;2023-04-25T03:35:47;6.50;99.00
41756;DHT22;27435;48.480;9.258;2023-04-25T03:38:12;6.40;99.00
41756;DHT22;27435;48.480;9.258;2023-04-25T03:40:38;6.40;99.00
41756;DHT22;27435;48.480;9.258;2023-04-25T03:43:03;6.60;99.00
41756;DHT22;27435;48.480;9.258;2023-04-25T03:45:29;6.60;99.00
41756;DHT22;27435;48.480;9.258;2023-04-25T03:47:55;6.70;99.00
41756;DHT22;27435;48.480;9.258;2023-04-25T03:50:20;6.70;99.00
41756;DHT22;27435;48.480;9.258;2023-04-25T03:52:46;6.70;99.00
41756;DHT22;27435;48.480;9.258;2023-04-25T03:55:12;6.90;99.00
41756;DHT22;27435;48.480;9.258;2023-04-25T03:57:37;6.90;99.00
41756;DHT22;27435;48.480;9.258;2023-04-25T04:00:03;6.90;99.00
41756;DHT22;27435;48.480;9.258;2023-04-25T04:02:29;6.80;99.00
41756;DHT22;27435;48.480;9.258;2023-04-25T04:04:55;6.70;99.00
41756;DHT22;27435;48.480;9.258;2023-04-25T04:07:22;6.90;99.00
41756;DHT22;27435;48.480;9.258;2023-04-25T04:09:47;7.00;99.00
41756;DHT22;27435;48.480;9.258;2023-04-25T04:12:13;7.00;99.00
41756;DHT22;27435;48.480;9.258;2023-04-25T04:14:38;7.00;99.00
41756;DHT22;27435;48.480;9.258;2023-04-25T04:17:04;7.00;99.00
41756;DHT22;27435;48.480;9.258;2023-04-25T04:19:31;7.00;99.00
41756;DHT22;27435;48.480;9.258;2023-04-25T04:21:56;7.20;99.00
41756;DHT22;27435;48.480;9.258;2023-04-25T04:24:22;7.20;99.00
41756;DHT22;27435;48.480;9.258;2023-04-25T04:26:48;7.20;99.00
41756;DHT22;27435;48.480;9.258;2023-04-25T04:29:13;7.20;99.00
41756;DHT22;27435;48.480;9.258;2023-04-25T04:31:47;7.20;99.00
41756;DHT22;27435;48.480;9.258;2023-04-25T04:34:13;7.30;99.00
41756;DHT22;27435;48.480;9.258;2023-04-25T04:36:39;7.20;99.00
41756;DHT22;27435;48.480;9.258;2023-04-25T04:39:06;7.30;99.00
41756;DHT22;27435;48.480;9.258;2023-04-25T04:41:31;7.40;99.00
41756;DHT22;27435;48.480;9.258;2023-04-25T04:43:57;7.40;99.00
41756;DHT22;27435;48.480;9.258;2023-04-25T04:46:23;7.40;99.00
41756;DHT22;27435;48.480;9.258;2023-04-25T04:48:49;7.40;99.00
41756;DHT22;27435;48.480;9.258;2023-04-25T04:51:15;7.50;99.00
41756;DHT22;27435;48.480;9.258;2023-04-25T04:53:41;7.60;99.00
41756;DHT22;27435;48.480;9.258;2023-04-25T04:56:06;7.60;99.00
41756;DHT22;27435;48.480;9.258;2023-04-25T04:58:32;7.60;99.00
41756;DHT22;27435;48.480;9.258;2023-04-25T05:00:58;7.50;99.00
41756;DHT22;27435;48.480;9.258;2023-04-25T05:03:24;7.20;99.00
41756;DHT22;27435;48.480;9.258;2023-04-25T05:05:49;7.10;99.00
41756;DHT22;27435;48.480;9.258;2023-04-25T05:08:15;7.10;99.00
41756;DHT22;27435;48.480;9.258;2023-04-25T05:10:40;7.20;99.00
41756;DHT22;27435;48.480;9.258;2023-04-25T05:13:07;7.20;99.00
41756;DHT22;27435;48.480;9.258;2023-04-25T05:15:32;7.50;99.00
41756;DHT22;27435;48.480;9.258;2023-04-25T05:17:58;7.70;99.00
41756;DHT22;27435;48.480;9.258;2023-04-25T05:20:24;7.70;99.00
41756;DHT22;27435;48.480;9.258;2023-04-25T05:22:49;7.70;99.00
41756;DHT22;27435;48.480;9.258;2023-04-25T05:25:15;7.80;99.00
41756;DHT22;27435;48.480;9.258;2023-04-25T05:27:40;7.80;99.00
41756;DHT22;27435;48.480;9.258;2023-04-25T05:30:07;7.80;99.00
41756;DHT22;27435;48.480;9.258;2023-04-25T05:32:33;7.80;99.00
41756;DHT22;27435;48.480;9.258;2023-04-25T05:34:59;7.80;99.00
41756;DHT22;27435;48.480;9.258;2023-04-25T05:37:25;7.90;99.00
41756;DHT22;27435;48.480;9.258;2023-04-25T05:39:50;7.90;99.00
41756;DHT22;27435;48.480;9.258;2023-04-25T05:42:16;7.80;99.00
41756;DHT22;27435;48.480;9.258;2023-04-25T05:44:42;7.80;99.00
41756;DHT22;27435;48.480;9.258;2023-04-25T05:47:07;7.70;99.00
41756;DHT22;27435;48.480;9.258;2023-04-25T05:49:34;7.90;99.00
41756;DHT22;27435;48.480;9.258;2023-04-25T05:51:59;8.00;99.00
41756;DHT22;27435;48.480;9.258;2023-04-25T05:54:25;8.20;99.00
41756;DHT22;27435;48.480;9.258;2023-04-25T05:56:51;8.40;98.70
41756;DHT22;27435;48.480;9.258;2023-04-25T05:59:17;8.50;98.10
41756;DHT22;27435;48.480;9.258;2023-04-25T06:01:43;8.60;97.40
41756;DHT22;27435;48.480;9.258;2023-04-25T06:04:09;8.80;96.10
41756;DHT22;27435;48.480;9.258;2023-04-25T06:06:34;8.90;96.30
41756;DHT22;27435;48.480;9.258;2023-04-25T06:09:00;9.20;94.40
41756;DHT22;27435;48.480;9.258;2023-04-25T06:11:26;9.40;94.00
41756;DHT22;27435;48.480;9.258;2023-04-25T06:13:51;9.10;93.90
41756;DHT22;27435;48.480;9.258;2023-04-25T06:16:17;8.80;95.90
41756;DHT22;27435;48.480;9.258;2023-04-25T06:18:43;9.10;95.40
41756;DHT22;27435;48.480;9.258;2023-04-25T06:21:08;9.50;93.00
41756;DHT22;27435;48.480;9.258;2023-04-25T06:23:34;9.50;93.10
41756;DHT22;27435;48.480;9.258;2023-04-25T06:25:59;9.30;93.80
41756;DHT22;27435;48.480;9.258;2023-04-25T06:28:25;8.70;95.90
41756;DHT22;27435;48.480;9.258;2023-04-25T06:30:51;8.60;96.70
41756;DHT22;27435;48.480;9.258;2023-04-25T06:33:16;8.50;97.70
41756;DHT22;27435;48.480;9.258;2023-04-25T06:35:42;8.30;98.60
41756;DHT22;27435;48.480;9.258;2023-04-25T06:38:08;8.20;97.70
41756;DHT22;27435;48.480;9.258;2023-04-25T06:40:34;8.20;97.90
41756;DHT22;27435;48.480;9.258;2023-04-25T06:42:59;8.20;97.80
41756;DHT22;27435;48.480;9.258;2023-04-25T06:45:25;8.00;98.70
41756;DHT22;27435;48.480;9.258;2023-04-25T06:47:51;8.00;99.00
41756;DHT22;27435;48.480;9.258;2023-04-25T06:50:16;7.90;99.00
41756;DHT22;27435;48.480;9.258;2023-04-25T06:52:42;8.00;99.00
41756;DHT22;27435;48.480;9.258;2023-04-25T06:55:08;8.30;99.00
41756;DHT22;27435;48.480;9.258;2023-04-25T06:57:33;8.60;98.40
41756;DHT22;27435;48.480;9.258;2023-04-25T06:59:59;8.70;97.40
41756;DHT22;27435;48.480;9.258;2023-04-25T07:02:25;8.60;96.40
41756;DHT22;27435;48.480;9.258;2023-04-25T07:04:50;8.40;96.80
41756;DHT22;27435;48.480;9.258;2023-04-25T07:07:16;8.40;97.40
41756;DHT22;27435;48.480;9.258;2023-04-25T07:09:42;8.40;97.00
41756;DHT22;27435;48.480;9.258;2023-04-25T07:12:08;8.10;97.30
41756;DHT22;27435;48.480;9.258;2023-04-25T07:14:33;8.10;98.90
41756;DHT22;27435;48.480;9.258;2023-04-25T07:16:59;8.30;99.00
41756;DHT22;27435;48.480;9.258;2023-04-25T07:19:24;8.30;98.00
41756;DHT22;27435;48.480;9.258;2023-04-25T07:21:52;8.30;99.00
41756;DHT22;27435;48.480;9.258;2023-04-25T07:24:18;8.40;98.80
41756;DHT22;27435;48.480;9.258;2023-04-25T07:26:43;8.20;98.50
41756;DHT22;27435;48.480;9.258;2023-04-25T07:29:10;8.10;99.00
41756;DHT22;27435;48.480;9.258;2023-04-25T07:31:35;8.00;99.00
41756;DHT22;27435;48.480;9.258;2023-04-25T07:34:01;7.90;99.00
41756;DHT22;27435;48.480;9.258;2023-04-25T07:36:27;7.90;99.00
41756;DHT22;27435;48.480;9.258;2023-04-25T07:38:52;8.00;99.00
41756;DHT22;27435;48.480;9.258;2023-04-25T07:41:18;7.90;99.00
41756;DHT22;27435;48.480;9.258;2023-04-25T07:43:43;7.70;99.00
41756;DHT22;27435;48.480;9.258;2023-04-25T07:46:09;7.80;99.00
41756;DHT22;27435;48.480;9.258;2023-04-25T07:48:35;7.80;99.00
41756;DHT22;27435;48.480;9.258;2023-04-25T07:51:00;7.70;99.00
41756;DHT22;27435;48.480;9.258;2023-04-25T07:53:26;8.00;99.00
41756;DHT22;27435;48.480;9.258;2023-04-25T07:55:51;8.20;99.00
41756;DHT22;27435;48.480;9.258;2023-04-25T07:58:17;8.20;99.00
41756;DHT22;27435;48.480;9.258;2023-04-25T08:00:47;8.30;99.00
41756;DHT22;27435;48.480;9.258;2023-04-25T08:03:13;8.50;99.00
41756;DHT22;27435;48.480;9.258;2023-04-25T08:05:39;8.50;99.00
41756;DHT22;27435;48.480;9.258;2023-04-25T08:08:05;8.50;99.00
41756;DHT22;27435;48.480;9.258;2023-04-25T08:10:32;8.50;99.00
41756;DHT22;27435;48.480;9.258;2023-04-25T08:12:58;8.60;99.00
41756;DHT22;27435;48.480;9.258;2023-04-25T08:15:24;8.60;99.00
41756;DHT22;27435;48.480;9.258;2023-04-25T08:17:50;8.70;99.00
41756;DHT22;27435;48.480;9.258;2023-04-25T08:20:16;8.70;99.00
41756;DHT22;27435;48.480;9.258;2023-04-25T08:22:42;8.90;99.00
41756;DHT22;27435;48.480;9.258;2023-04-25T08:25:08;8.80;99.00
41756;DHT22;27435;48.480;9.258;2023-04-25T08:27:33;8.80;99.00
41756;DHT22;27435;48.480;9.258;2023-04-25T08:29:59;8.70;99.00
41756;DHT22;27435;48.480;9.258;2023-04-25T08:32:25;8.70;99.00
41756;DHT22;27435;48.480;9.258;2023-04-25T08:34:50;8.50;99.00
41756;DHT22;27435;48.480;9.258;2023-04-25T08:37:19;8.20;99.00
41756;DHT22;27435;48.480;9.258;2023-04-25T08:39:45;7.80;99.00
41756;DHT22;27435;48.480;9.258;2023-04-25T08:42:15;7.60;99.00
41756;DHT22;27435;48.480;9.258;2023-04-25T08:44:40;7.30;99.00
41756;DHT22;27435;48.480;9.258;2023-04-25T08:47:06;7.40;99.00
41756;DHT22;27435;48.480;9.258;2023-04-25T08:49:33;7.40;99.00
41756;DHT22;27435;48.480;9.258;2023-04-25T08:52:01;7.40;99.00
41756;DHT22;27435;48.480;9.258;2023-04-25T08:54:28;7.20;99.00
41756;DHT22;27435;48.480;9.258;2023-04-25T08:56:55;7.10;99.00
41756;DHT22;27435;48.480;9.258;2023-04-25T08:59:23;7.00;99.00
41756;DHT22;27435;48.480;9.258;2023-04-25T09:01:52;6.90;99.00
41756;DHT22;27435;48.480;9.258;2023-04-25T09:04:18;6.70;99.00
41756;DHT22;27435;48.480;9.258;2023-04-25T09:06:44;6.60;99.00
41756;DHT22;27435;48.480;9.258;2023-04-25T09:09:09;6.50;99.00
41756;DHT22;27435;48.480;9.258;2023-04-25T09:11:36;6.40;99.00
41756;DHT22;27435;48.480;9.258;2023-04-25T09:14:22;6.20;99.00
41756;DHT22;27435;48.480;9.258;2023-04-25T09:19:29;6.00;99.00
41756;DHT22;27435;48.480;9.258;2023-04-25T09:22:00;6.00;99.00
41756;DHT22;27435;48.480;9.258;2023-04-25T09:24:43;6.00;99.00
41756;DHT22;27435;48.480;9.258;2023-04-25T09:27:10;6.30;99.00
41756;DHT22;27435;48.480;9.258;2023-04-25T09:29:38;6.50;99.00
41756;DHT22;27435;48.480;9.258;2023-04-25T09:32:21;6.50;99.00
41756;DHT22;27435;48.480;9.258;2023-04-25T09:34:55;6.20;99.00
41756;DHT22;27435;48.480;9.258;2023-04-25T09:37:30;6.20;99.00
41756;DHT22;27435;48.480;9.258;2023-04-25T09:39:57;6.00;99.00
41756;DHT22;27435;48.480;9.258;2023-04-25T09:42:28;6.00;99.00
41756;DHT22;27435;48.480;9.258;2023-04-25T09:44:55;6.30;99.00
41756;DHT22;27435;48.480;9.258;2023-04-25T09:47:26;6.50;99.00
41756;DHT22;27435;48.480;9.258;2023-04-25T09:49:54;6.50;99.00
41756;DHT22;27435;48.480;9.258;2023-04-25T09:52:22;6.40;99.00
41756;DHT22;27435;48.480;9.258;2023-04-25T09:54:49;6.30;99.00
41756;DHT22;27435;48.480;9.258;2023-04-25T09:57:17;6.30;99.00
41756;DHT22;27435;48.480;9.258;2023-04-25T10:02:11;6.20;99.00
41756;DHT22;27435;48.480;9.258;2023-04-25T10:04:38;6.20;99.00
41756;DHT22;27435;48.480;9.258;2023-04-25T10:07:06;6.20;99.00
41756;DHT22;27435;48.480;9.258;2023-04-25T10:09:33;6.40;99.00
41756;DHT22;27435;48.480;9.258;2023-04-25T10:11:59;6.60;99.00
41756;DHT22;27435;48.480;9.258;2023-04-25T10:14:26;6.60;99.00
41756;DHT22;27435;48.480;9.258;2023-04-25T10:16:53;6.40;99.00
41756;DHT22;27435;48.480;9.258;2023-04-25T10:19:20;6.60;99.00
41756;DHT22;27435;48.480;9.258;2023-04-25T10:21:52;6.50;99.00
41756;DHT22;27435;48.480;9.258;2023-04-25T10:24:18;6.40;99.00
41756;DHT22;27435;48.480;9.258;2023-04-25T10:26:44;6.30;99.00
41756;DHT22;27435;48.480;9.258;2023-04-25T10:29:10;6.20;99.00
41756;DHT22;27435;48.480;9.258;2023-04-25T10:31:45;6.20;99.00
41756;DHT22;27435;48.480;9.258;2023-04-25T10:34:12;6.00;99.00
41756;DHT22;27435;48.480;9.258;2023-04-25T10:36:38;5.80;99.00
41756;DHT22;27435;48.480;9.258;2023-04-25T10:39:06;5.80;99.00
41756;DHT22;27435;48.480;9.258;2023-04-25T10:41:45;5.80;99.00
41756;DHT22;27435;48.480;9.258;2023-04-25T10:44:11;5.70;99.00
41756;DHT22;27435;48.480;9.258;2023-04-25T10:46:37;5.70;99.00
41756;DHT22;27435;48.480;9.258;2023-04-25T10:49:03;5.50;99.00
41756;DHT22;27435;48.480;9.258;2023-04-25T10:51:33;5.40;99.00
41756;DHT22;27435;48.480;9.258;2023-04-25T10:54:07;5.30;99.00
41756;DHT22;27435;48.480;9.258;2023-04-25T10:59:07;5.20;99.00
41756;DHT22;27435;48.480;9.258;2023-04-25T11:01:42;5.30;99.00
41756;DHT22;27435;48.480;9.258;2023-04-25T11:04:32;5.30;99.00
41756;DHT22;27435;48.480;9.258;2023-04-25T11:07:23;5.30;99.00
41756;DHT22;27435;48.480;9.258;2023-04-25T11:09:51;5.40;99.00
41756;DHT22;27435;48.480;9.258;2023-04-25T11:12:17;5.70;99.00
41756;DHT22;27435;48.480;9.258;2023-04-25T11:14:43;5.80;99.00
41756;DHT22;27435;48.480;9.258;2023-04-25T11:17:09;6.10;99.00
41756;DHT22;27435;48.480;9.258;2023-04-25T11:19:36;6.40;99.00
41756;DHT22;27435;48.480;9.258;2023-04-25T11:22:02;6.80;99.00
41756;DHT22;27435;48.480;9.258;2023-04-25T11:24:33;7.00;99.00
41756;DHT22;27435;48.480;9.258;2023-04-25T11:27:05;7.00;99.00
41756;DHT22;27435;48.480;9.258;2023-04-25T11:29:34;6.90;99.00
41756;DHT22;27435;48.480;9.258;2023-04-25T11:32:00;6.70;99.00
41756;DHT22;27435;48.480;9.258;2023-04-25T11:34:28;6.80;99.00
41756;DHT22;27435;48.480;9.258;2023-04-25T11:36:58;6.80;99.00
41756;DHT22;27435;48.480;9.258;2023-04-25T11:39:25;6.60;99.00
41756;DHT22;27435;48.480;9.258;2023-04-25T11:41:52;6.60;99.00
41756;DHT22;27435;48.480;9.258;2023-04-25T11:44:19;6.70;99.00
41756;DHT22;27435;48.480;9.258;2023-04-25T11:46:45;6.70;99.00
41756;DHT22;27435;48.480;9.258;2023-04-25T11:49:11;6.70;99.00
41756;DHT22;27435;48.480;9.258;2023-04-25T11:51:42;6.70;99.00
41756;DHT22;27435;48.480;9.258;2023-04-25T11:54:08;6.70;99.00
41756;DHT22;27435;48.480;9.258;2023-04-25T11:56:34;6.40;99.00
41756;DHT22;27435;48.480;9.258;2023-04-25T11:59:04;5.90;99.00
41756;DHT22;27435;48.480;9.258;2023-04-25T12:01:40;6.00;99.00
41756;DHT22;27435;48.480;9.258;2023-04-25T12:04:21;6.10;99.00
41756;DHT22;27435;48.480;9.258;2023-04-25T12:06:48;6.30;99.00
41756;DHT22;27435;48.480;9.258;2023-04-25T12:09:16;6.40;99.00
41756;DHT22;27435;48.480;9.258;2023-04-25T12:11:57;6.50;99.00
41756;DHT22;27435;48.480;9.258;2023-04-25T12:14:30;6.60;99.00
41756;DHT22;27435;48.480;9.258;2023-04-25T12:16:59;6.70;99.00
41756;DHT22;27435;48.480;9.258;2023-04-25T12:19:25;7.20;99.00
41756;DHT22;27435;48.480;9.258;2023-04-25T12:21:52;7.20;99.00
41756;DHT22;27435;48.480;9.258;2023-04-25T12:24:22;7.20;99.00
41756;DHT22;27435;48.480;9.258;2023-04-25T12:29:27;7.50;99.00
41756;DHT22;27435;48.480;9.258;2023-04-25T12:31:53;7.40;99.00
41756;DHT22;27435;48.480;9.258;2023-04-25T12:34:21;7.20;99.00
41756;DHT22;27435;48.480;9.258;2023-04-25T12:36:47;7.30;99.00
41756;DHT22;27435;48.480;9.258;2023-04-25T12:39:24;7.40;99.00
41756;DHT22;27435;48.480;9.258;2023-04-25T12:41:52;7.80;99.00
41756;DHT22;27435;48.480;9.258;2023-04-25T12:44:21;7.50;99.00
41756;DHT22;27435;48.480;9.258;2023-04-25T12:46:47;7.60;99.00
41756;DHT22;27435;48.480;9.258;2023-04-25T12:49:13;7.70;99.00
41756;DHT22;27435;48.480;9.258;2023-04-25T12:51:39;7.80;99.00
41756;DHT22;27435;48.480;9.258;2023-04-25T12:54:07;7.80;99.00
41756;DHT22;27435;48.480;9.258;2023-04-25T12:56:34;7.90;99.00
41756;DHT22;27435;48.480;9.258;2023-04-25T12:59:00;7.90;99.00
41756;DHT22;27435;48.480;9.258;2023-04-25T13:01:26;8.00;99.00
41756;DHT22;27435;48.480;9.258;2023-04-25T13:03:52;8.20;99.00
41756;DHT22;27435;48.480;9.258;2023-04-25T13:06:19;8.40;99.00
41756;DHT22;27435;48.480;9.258;2023-04-25T13:08:45;8.70;99.00
41756;DHT22;27435;48.480;9.258;2023-04-25T13:11:11;8.60;99.00
41756;DHT22;27435;48.480;9.258;2023-04-25T13:13:37;8.30;99.00
41756;DHT22;27435;48.480;9.258;2023-04-25T13:16:04;8.10;99.00
41756;DHT22;27435;48.480;9.258;2023-04-25T13:18:30;8.30;99.00
41756;DHT22;27435;48.480;9.258;2023-04-25T13:20:56;8.50;99.00
41756;DHT22;27435;48.480;9.258;2023-04-25T13:23:23;8.90;99.00
41756;DHT22;27435;48.480;9.258;2023-04-25T13:25:49;8.60;99.00
41756;DHT22;27435;48.480;9.258;2023-04-25T13:28:14;8.70;99.00
41756;DHT22;27435;48.480;9.258;2023-04-25T13:30:41;8.90;99.00
41756;DHT22;27435;48.480;9.258;2023-04-25T13:33:07;8.80;99.00
41756;DHT22;27435;48.480;9.258;2023-04-25T13:35:35;9.10;99.00
41756;DHT22;27435;48.480;9.258;2023-04-25T13:38:00;9.10;99.00
41756;DHT22;27435;48.480;9.258;2023-04-25T13:40:26;9.10;99.00
41756;DHT22;27435;48.480;9.258;2023-04-25T13:42:52;8.90;99.00
41756;DHT22;27435;48.480;9.258;2023-04-25T13:45:19;9.20;99.00
41756;DHT22;27435;48.480;9.258;2023-04-25T13:47:45;9.40;99.00
41756;DHT22;27435;48.480;9.258;2023-04-25T13:50:10;9.40;99.00
41756;DHT22;27435;48.480;9.258;2023-04-25T13:52:36;9.10;99.00
41756;DHT22;27435;48.480;9.258;2023-04-25T13:55:02;9.30;99.00
41756;DHT22;27435;48.480;9.258;2023-04-25T13:57:32;9.40;99.00
41756;DHT22;27435;48.480;9.258;2023-04-25T13:59:57;9.70;99.00
41756;DHT22;27435;48.480;9.258;2023-04-25T14:02:23;9.90;99.00
41756;DHT22;27435;48.480;9.258;2023-04-25T14:04:48;10.30;97.40
41756;DHT22;27435;48.480;9.258;2023-04-25T14:07:14;10.40;98.00
41756;DHT22;27435;48.480;9.258;2023-04-25T14:09:44;10.30;97.50
41756;DHT22;27435;48.480;9.258;2023-04-25T14:12:10;10.50;96.80
41756;DHT22;27435;48.480;9.258;2023-04-25T14:14:36;11.00;95.70
41756;DHT22;27435;48.480;9.258;2023-04-25T14:17:03;12.20;92.10
41756;DHT22;27435;48.480;9.258;2023-04-25T14:19:28;12.70;88.50
41756;DHT22;27435;48.480;9.258;2023-04-25T14:21:54;12.90;87.80
41756;DHT22;27435;48.480;9.258;2023-04-25T14:24:20;12.30;85.80
41756;DHT22;27435;48.480;9.258;2023-04-25T14:26:46;11.90;88.30
41756;DHT22;27435;48.480;9.258;2023-04-25T14:29:11;11.40;89.40
41756;DHT22;27435;48.480;9.258;2023-04-25T14:31:38;11.20;91.30
41756;DHT22;27435;48.480;9.258;2023-04-25T14:34:07;11.30;91.80
41756;DHT22;27435;48.480;9.258;2023-04-25T14:36:33;11.80;91.20
41756;DHT22;27435;48.480;9.258;2023-04-25T14:38:59;11.80;90.30
41756;DHT22;27435;48.480;9.258;2023-04-25T14:41:25;12.20;89.60
41756;DHT22;27435;48.480;9.258;2023-04-25T14:43:51;12.60;89.60
41756;DHT22;27435;48.480;9.258;2023-04-25T14:46:18;13.00;87.60
41756;DHT22;27435;48.480;9.258;2023-04-25T14:48:45;12.90;86.90
41756;DHT22;27435;48.480;9.258;2023-04-25T14:51:11;13.30;85.80
41756;DHT22;27435;48.480;9.258;2023-04-25T14:53:36;13.00;82.50
41756;DHT22;27435;48.480;9.258;2023-04-25T14:56:02;12.80;84.50
41756;DHT22;27435;48.480;9.258;2023-04-25T14:58:28;14.10;82.40
41756;DHT22;27435;48.480;9.258;2023-04-25T15:00:54;14.40;77.80
41756;DHT22;27435;48.480;9.258;2023-04-25T15:03:20;14.40;78.30
41756;DHT22;27435;48.480;9.258;2023-04-25T15:05:45;13.60;79.70
41756;DHT22;27435;48.480;9.258;2023-04-25T15:08:11;13.10;80.10
41756;DHT22;27435;48.480;9.258;2023-04-25T15:10:37;12.40;84.00
41756;DHT22;27435;48.480;9.258;2023-04-25T15:13:03;13.60;82.80
41756;DHT22;27435;48.480;9.258;2023-04-25T15:15:29;14.40;77.30
41756;DHT22;27435;48.480;9.258;2023-04-25T15:17:55;13.90;77.40
41756;DHT22;27435;48.480;9.258;2023-04-25T15:20:21;14.00;77.10
41756;DHT22;27435;48.480;9.258;2023-04-25T15:22:47;14.00;78.20
41756;DHT22;27435;48.480;9.258;2023-04-25T15:25:16;15.40;75.40
41756;DHT22;27435;48.480;9.258;2023-04-25T15:27:45;16.20;72.60
41756;DHT22;27435;48.480;9.258;2023-04-25T15:30:14;16.40;70.30
41756;DHT22;27435;48.480;9.258;2023-04-25T15:32:44;16.60;70.00
41756;DHT22;27435;48.480;9.258;2023-04-25T15:35:10;17.70;66.10
41756;DHT22;27435;48.480;9.258;2023-04-25T15:37:37;17.50;66.20
41756;DHT22;27435;48.480;9.258;2023-04-25T15:40:10;17.60;66.40
41756;DHT22;27435;48.480;9.258;2023-04-25T15:42:45;16.20;68.90
41756;DHT22;27435;48.480;9.258;2023-04-25T15:45:12;14.60;73.00
41756;DHT22;27435;48.480;9.258;2023-04-25T15:47:39;13.60;76.20
41756;DHT22;27435;48.480;9.258;2023-04-25T15:50:07;13.10;77.00
41756;DHT22;27435;48.480;9.258;2023-04-25T15:52:33;12.50;79.90